createdAt,value
2018-06-12T00:00:23.563Z,48.22
2018-06-12T00:02:52.566Z,48.97
2018-06-12T00:05:21.494Z,49.05
2018-06-12T00:07:51.143Z,49.65
2018-06-12T00:10:20.068Z,48.42
2018-06-12T00:12:49.586Z,48.28
2018-06-12T00:15:18.566Z,49.39
2018-06-12T00:17:47.517Z,50.67
2018-06-12T00:20:16.517Z,48.97
2018-06-12T00:22:45.779Z,49.46
2018-06-12T00:25:14.795Z,49.67
2018-06-12T00:27:45.285Z,49.95
2018-06-12T00:30:14.353Z,49.92
2018-06-12T00:32:43.287Z,49.65
2018-06-12T00:35:12.285Z,49.13
2018-06-12T00:37:41.427Z,49.70
2018-06-12T00:40:10.951Z,50.27
2018-06-12T00:42:40.221Z,49.93
2018-06-12T00:45:09.714Z,49.67
2018-06-12T00:47:38.681Z,50.86
2018-06-12T00:50:07.669Z,51.06
2018-06-12T00:52:36.781Z,50.34
2018-06-12T00:55:05.835Z,50.34
2018-06-12T00:57:34.782Z,51.16
2018-06-12T01:00:03.997Z,50.23
2018-06-12T01:02:32.864Z,50.68
2018-06-12T01:05:02.001Z,51.20
2018-06-12T01:07:31.078Z,51.29
2018-06-12T01:09:59.988Z,50.97
2018-06-12T01:12:28.999Z,51.61
2018-06-12T01:14:58.023Z,51.57
2018-06-12T01:17:27.634Z,51.87
2018-06-12T01:19:56.573Z,51.29
2018-06-12T01:22:25.630Z,51.04
2018-06-12T01:24:54.701Z,50.95
2018-06-12T01:27:24.390Z,51.58
2018-06-12T01:29:54.090Z,52.43
2018-06-12T01:32:23.016Z,51.66
2018-06-12T01:34:52.006Z,51.28
2018-06-12T01:37:21.056Z,50.93
2018-06-12T01:39:49.978Z,50.62
2018-06-12T01:42:19.589Z,50.52
2018-06-12T01:44:48.683Z,50.71
2018-06-12T01:47:17.685Z,52.02
2018-06-12T01:49:46.616Z,52.80
2018-06-12T01:52:16.243Z,51.84
2018-06-12T01:54:45.709Z,51.70
2018-06-12T01:57:14.751Z,51.57
2018-06-12T01:59:43.746Z,51.56
2018-06-12T02:02:15.459Z,52.42
2018-06-12T02:04:44.600Z,52.35
2018-06-12T02:07:13.514Z,51.42
2018-06-12T02:09:42.518Z,50.93
2018-06-12T02:12:11.548Z,51.05
2018-06-12T02:14:40.471Z,51.99
2018-06-12T02:17:09.426Z,52.46
2018-06-12T02:19:38.475Z,53.64
2018-06-12T02:22:08.077Z,52.86
2018-06-12T02:24:37.188Z,53.38
2018-06-12T02:27:06.222Z,52.43
2018-06-12T02:29:35.831Z,52.54
2018-06-12T02:32:04.896Z,52.79
2018-06-12T02:34:33.856Z,54.12
2018-06-12T02:37:02.745Z,53.95
2018-06-12T02:39:31.671Z,54.50
2018-06-12T02:42:00.618Z,54.38
2018-06-12T02:44:30.136Z,53.17
2018-06-12T02:46:59.264Z,53.10
2018-06-12T02:49:28.383Z,53.91
2018-06-12T02:51:57.401Z,55.35
2018-06-12T02:54:26.386Z,55.40
2018-06-12T02:56:55.444Z,55.52
2018-06-12T02:59:24.380Z,55.10
2018-06-12T03:01:59.804Z,54.74
2018-06-12T03:04:29.395Z,54.97
2018-06-12T03:06:58.317Z,55.47
2018-06-12T03:09:27.795Z,55.32
2018-06-12T03:11:56.727Z,55.32
2018-06-12T03:14:25.652Z,56.22
2018-06-12T03:16:56.064Z,56.11
2018-06-12T03:19:25.006Z,56.08
2018-06-12T03:21:53.929Z,56.09
2018-06-12T03:24:23.240Z,56.00
2018-06-12T03:26:52.237Z,56.73
2018-06-12T03:29:21.302Z,57.61
2018-06-12T03:31:50.315Z,57.29
2018-06-12T03:34:19.246Z,58.18
2018-06-12T03:36:48.239Z,58.87
2018-06-12T03:39:17.269Z,59.69
2018-06-12T03:41:46.236Z,58.02
2018-06-12T03:44:16.346Z,59.32
2018-06-12T03:46:46.200Z,60.85
2018-06-12T03:49:15.288Z,61.20
2018-06-12T03:51:44.261Z,61.54
2018-06-12T03:54:13.303Z,61.77
2018-06-12T03:56:42.347Z,61.85
2018-06-12T03:59:11.366Z,62.05
2018-06-12T04:01:40.489Z,61.82
2018-06-12T04:04:09.652Z,61.56
2018-06-12T04:06:40.024Z,62.29
2018-06-12T04:09:10.011Z,61.78
2018-06-12T04:11:39.835Z,61.27
2018-06-12T04:14:10.395Z,60.70
2018-06-12T04:16:39.400Z,59.10
2018-06-12T04:19:08.541Z,57.34
2018-06-12T04:21:37.690Z,58.49
2018-06-12T04:24:06.639Z,58.81
2018-06-12T04:26:35.629Z,58.12
2018-06-12T04:29:04.755Z,56.75
2018-06-12T04:31:33.659Z,55.84
2018-06-12T04:34:02.677Z,54.06
2018-06-12T04:36:31.830Z,54.49
2018-06-12T04:39:00.854Z,55.07
2018-06-12T04:41:29.766Z,54.98
2018-06-12T04:43:58.773Z,57.00
2018-06-12T04:46:27.714Z,54.86
2018-06-12T04:48:56.639Z,55.67
2018-06-12T04:51:25.725Z,55.16
2018-06-12T04:53:54.797Z,54.21
2018-06-12T04:56:24.062Z,53.87
2018-06-12T04:58:53.708Z,51.73
2018-06-12T05:01:22.830Z,53.35
2018-06-12T05:03:51.746Z,51.85
2018-06-12T05:06:20.861Z,50.13
2018-06-12T05:08:50.320Z,49.50
2018-06-12T05:11:19.288Z,48.04
2018-06-12T05:13:48.431Z,51.24
2018-06-12T05:16:17.421Z,51.40
2018-06-12T05:18:46.467Z,49.82
2018-06-12T05:21:18.494Z,49.70
2018-06-12T05:23:47.454Z,48.63
2018-06-12T05:26:16.377Z,49.19
2018-06-12T05:28:45.393Z,47.71
2018-06-12T05:31:15.293Z,46.75
2018-06-12T05:33:44.201Z,45.91
2018-06-12T05:36:13.183Z,49.34
2018-06-12T05:38:42.167Z,43.63
2018-06-12T05:41:11.036Z,47.20
2018-06-12T05:43:40.075Z,43.45
2018-06-12T05:46:09.067Z,41.52
2018-06-12T05:48:37.985Z,46.02
2018-06-12T05:51:07.242Z,46.28
2018-06-12T05:53:36.273Z,42.36
2018-06-12T05:56:06.479Z,39.74
2018-06-12T05:58:36.540Z,40.35
2018-06-12T06:01:05.492Z,40.44
2018-06-12T06:03:34.434Z,42.73
2018-06-12T06:06:03.490Z,43.53
2018-06-12T06:08:32.445Z,40.14
2018-06-12T06:11:01.375Z,38.69
2018-06-12T06:13:30.416Z,40.27
2018-06-12T06:15:59.339Z,39.05
2018-06-12T06:18:28.287Z,39.96
2018-06-12T06:20:57.392Z,40.11
2018-06-12T06:23:26.360Z,40.37
2018-06-12T06:25:55.350Z,39.96
2018-06-12T06:28:24.892Z,40.41
2018-06-12T06:30:54.328Z,41.30
2018-06-12T06:33:23.283Z,41.30
2018-06-12T06:35:52.331Z,45.81
2018-06-12T06:38:21.287Z,42.98
2018-06-12T06:40:51.179Z,40.16
2018-06-12T06:43:20.171Z,38.04
2018-06-12T06:45:49.116Z,35.66
2018-06-12T06:48:18.061Z,36.03
2018-06-12T06:50:47.113Z,38.84
2018-06-12T06:53:16.052Z,33.30
2018-06-12T06:55:45.160Z,37.45
2018-06-12T06:58:14.443Z,37.28
2018-06-12T07:00:43.562Z,36.96
2018-06-12T07:03:13.009Z,38.78
2018-06-12T07:05:41.971Z,37.27
2018-06-12T07:08:11.661Z,35.73
2018-06-12T07:10:41.356Z,34.89
2018-06-12T07:13:10.444Z,39.63
2018-06-12T07:15:39.365Z,35.46
2018-06-12T07:18:08.308Z,36.17
2018-06-12T07:21:51.948Z,36.41
2018-06-12T07:24:20.977Z,33.29
2018-06-12T07:26:50.629Z,36.11
2018-06-12T07:29:19.701Z,37.79
2018-06-12T07:31:48.729Z,36.18
2018-06-12T07:34:17.648Z,33.04
2018-06-12T07:36:46.784Z,32.31
2018-06-12T07:39:16.379Z,33.67
2018-06-12T07:41:45.313Z,34.36
2018-06-12T07:44:14.348Z,34.13
2018-06-12T07:46:43.867Z,34.92
2018-06-12T07:49:13.507Z,34.21
2018-06-12T07:51:43.152Z,33.65
2018-06-12T07:54:12.142Z,35.93
2018-06-12T07:56:41.196Z,34.52
2018-06-12T07:59:10.125Z,36.37
2018-06-12T08:01:39.119Z,32.10
2018-06-12T08:04:08.045Z,36.15
2018-06-12T08:06:38.002Z,32.34
2018-06-12T08:09:08.209Z,36.05
2018-06-12T08:11:37.144Z,35.96
2018-06-12T08:14:06.748Z,33.35
2018-06-12T08:16:36.437Z,30.19
2018-06-12T08:19:05.419Z,32.75
2018-06-12T08:21:34.601Z,35.58
2018-06-12T08:24:03.632Z,34.99
2018-06-12T08:26:32.570Z,32.04
2018-06-12T08:29:02.166Z,34.63
2018-06-12T08:31:31.873Z,34.25
2018-06-12T08:34:00.789Z,30.63
2018-06-12T08:36:29.864Z,31.32
2018-06-12T08:38:58.815Z,35.17
2018-06-12T08:41:27.749Z,34.21
2018-06-12T08:43:56.770Z,34.09
2018-06-12T08:46:25.805Z,36.12
2018-06-12T08:48:54.718Z,34.25
2018-06-12T08:51:23.860Z,34.43
2018-06-12T08:53:53.385Z,35.61
2018-06-12T08:56:22.414Z,32.84
2018-06-12T08:58:51.495Z,33.08
2018-06-12T09:01:20.463Z,31.25
2018-06-12T09:03:49.396Z,30.06
2018-06-12T09:06:18.425Z,34.36
2018-06-12T09:08:47.417Z,31.97
2018-06-12T09:11:16.912Z,32.24
2018-06-12T09:13:46.864Z,33.33
2018-06-12T09:16:15.800Z,31.92
2018-06-12T09:18:44.712Z,34.21
2018-06-12T09:21:13.697Z,33.08
2018-06-12T09:23:42.717Z,34.71
2018-06-12T09:26:11.740Z,32.69
2018-06-12T09:28:40.965Z,32.48
2018-06-12T09:31:09.949Z,32.41
2018-06-12T09:33:38.871Z,32.61
2018-06-12T09:36:13.070Z,28.99
2018-06-12T09:38:42.082Z,30.32
2018-06-12T09:41:11.063Z,29.79
2018-06-12T09:43:40.108Z,30.92
2018-06-12T09:46:09.625Z,31.94
2018-06-12T09:48:38.539Z,31.78
2018-06-12T09:51:07.613Z,30.67
2018-06-12T09:53:36.556Z,31.41
2018-06-12T09:56:05.872Z,30.75
2018-06-12T09:58:35.190Z,30.34
2018-06-12T10:01:09.181Z,32.96
2018-06-12T10:03:38.352Z,33.65
2018-06-12T10:06:07.481Z,31.73
2018-06-12T10:08:36.429Z,32.32
2018-06-12T10:11:05.504Z,31.66
2018-06-12T10:13:34.447Z,33.92
2018-06-12T10:16:04.179Z,31.57
2018-06-12T10:18:33.296Z,31.38
2018-06-12T10:21:02.223Z,30.25
2018-06-12T10:23:31.165Z,27.91
2018-06-12T10:26:00.330Z,29.35
2018-06-12T10:28:29.299Z,30.84
2018-06-12T10:30:58.317Z,29.03
2018-06-12T10:33:27.295Z,31.21
2018-06-12T10:35:56.248Z,30.73
2018-06-12T10:38:32.156Z,30.41
2018-06-12T10:41:01.381Z,31.75
2018-06-12T10:43:30.370Z,31.35
2018-06-12T10:45:59.376Z,30.40
2018-06-12T10:48:28.313Z,29.30
2018-06-12T10:50:57.282Z,30.45
2018-06-12T10:53:27.008Z,29.41
2018-06-12T10:55:56.605Z,28.05
2018-06-12T10:58:25.543Z,29.34
2018-06-12T11:00:54.626Z,33.13
2018-06-12T11:03:23.677Z,30.32
2018-06-12T11:05:53.320Z,29.18
2018-06-12T11:08:25.234Z,30.30
2018-06-12T11:10:54.228Z,28.73
2018-06-12T11:13:23.202Z,28.56
2018-06-12T11:15:52.203Z,31.08
2018-06-12T11:18:21.105Z,29.81
2018-06-12T11:20:50.834Z,29.19
2018-06-12T11:23:20.650Z,31.74
2018-06-12T11:25:50.197Z,29.89
2018-06-12T11:28:19.333Z,30.17
2018-06-12T11:30:48.281Z,30.42
2018-06-12T11:33:17.242Z,31.91
2018-06-12T11:35:46.242Z,32.00
2018-06-12T11:38:15.204Z,29.66
2018-06-12T11:40:44.161Z,30.04
2018-06-12T11:43:13.236Z,29.28
2018-06-12T11:45:42.253Z,29.01
2018-06-12T11:48:11.182Z,29.06
2018-06-12T11:50:40.265Z,30.39
2018-06-12T11:53:09.253Z,30.32
2018-06-12T11:55:38.222Z,30.37
2018-06-12T11:58:07.255Z,30.86
2018-06-12T12:00:36.222Z,29.82
2018-06-12T12:03:05.204Z,30.48
2018-06-12T12:05:34.308Z,31.15
2018-06-12T12:08:03.267Z,28.67
2018-06-12T12:10:32.269Z,30.56
2018-06-12T12:13:01.239Z,30.98
2018-06-12T12:15:35.180Z,29.93
2018-06-12T12:18:04.108Z,31.28
2018-06-12T12:20:33.055Z,31.26
2018-06-12T12:23:01.902Z,30.00
2018-06-12T12:25:30.983Z,28.66
2018-06-12T12:28:36.650Z,30.74
2018-06-12T12:31:05.607Z,27.57
2018-06-12T12:33:39.038Z,30.82
2018-06-12T12:36:10.667Z,31.70
2018-06-12T12:38:39.692Z,29.66
2018-06-12T12:41:08.681Z,33.55
2018-06-12T12:43:37.801Z,32.33
2018-06-12T12:46:07.462Z,30.20
2018-06-12T12:48:36.891Z,29.45
2018-06-12T12:51:05.881Z,29.09
2018-06-12T12:53:34.868Z,29.82
2018-06-12T12:56:03.842Z,30.45
2018-06-12T12:58:32.884Z,32.01
2018-06-12T13:01:04.382Z,31.78
2018-06-12T13:03:33.480Z,30.95
2018-06-12T13:06:03.632Z,29.70
2018-06-12T13:08:32.569Z,33.26
2018-06-12T13:11:01.565Z,30.98
2018-06-12T13:13:30.528Z,31.54
2018-06-12T13:15:59.475Z,30.73
2018-06-12T13:18:28.449Z,30.46
2018-06-12T13:20:57.448Z,29.29
2018-06-12T13:23:26.923Z,30.83
2018-06-12T13:25:56.032Z,31.29
2018-06-12T13:28:25.903Z,32.67
2018-06-12T13:30:54.820Z,32.54
2018-06-12T13:33:24.446Z,29.35
2018-06-12T13:35:53.505Z,30.75
2018-06-12T13:38:22.423Z,31.34
2018-06-12T13:40:52.036Z,30.66
2018-06-12T13:43:21.032Z,33.25
2018-06-12T13:45:50.023Z,32.04
2018-06-12T13:48:18.987Z,30.90
2018-06-12T13:50:47.948Z,31.56
2018-06-12T13:53:16.909Z,32.01
2018-06-12T13:55:47.042Z,31.96
2018-06-12T13:58:16.851Z,32.88
2018-06-12T14:00:45.835Z,32.80
2018-06-12T14:03:14.955Z,33.06
2018-06-12T14:05:43.914Z,33.13
2018-06-12T14:08:13.003Z,32.66
2018-06-12T14:10:43.138Z,33.55
2018-06-12T14:13:12.075Z,33.82
2018-06-12T14:15:41.067Z,31.43
2018-06-12T14:18:10.259Z,32.56
2018-06-12T14:20:39.340Z,31.62
2018-06-12T14:23:09.440Z,33.33
2018-06-12T14:25:38.605Z,32.08
2018-06-12T14:28:07.762Z,31.28
2018-06-12T14:30:38.469Z,30.09
2018-06-12T14:33:07.565Z,30.83
2018-06-12T14:35:36.516Z,31.75
2018-06-12T14:38:05.937Z,32.12
2018-06-12T14:40:35.120Z,31.50
2018-06-12T14:43:04.121Z,31.98
2018-06-12T14:45:33.244Z,32.73
2018-06-12T14:48:02.376Z,33.42
2018-06-12T14:50:31.499Z,32.87
2018-06-12T14:53:00.640Z,34.58
2018-06-12T14:55:29.676Z,32.34
2018-06-12T14:57:58.601Z,31.71
2018-06-12T15:00:28.424Z,34.50
2018-06-12T15:02:57.495Z,32.41
2018-06-12T15:05:26.451Z,33.94
2018-06-12T15:07:55.536Z,34.06
2018-06-12T15:10:24.552Z,34.71
2018-06-12T15:12:53.535Z,32.86
2018-06-12T15:15:22.549Z,34.07
2018-06-12T15:17:51.629Z,34.46
2018-06-12T15:20:20.727Z,35.10
2018-06-12T15:22:49.880Z,34.42
2018-06-12T15:25:18.936Z,35.05
2018-06-12T15:27:47.873Z,35.28
2018-06-12T15:30:16.999Z,36.67
2018-06-12T15:32:46.765Z,33.58
2018-06-12T15:35:15.943Z,34.42
2018-06-12T15:37:45.005Z,33.00
2018-06-12T15:40:13.981Z,32.44
2018-06-12T15:42:43.019Z,34.53
2018-06-12T15:45:12.124Z,33.57
2018-06-12T15:47:41.229Z,34.19
2018-06-12T15:50:10.206Z,34.75
2018-06-12T15:52:39.300Z,35.98
2018-06-12T15:55:08.850Z,34.56
2018-06-12T15:57:37.780Z,32.92
2018-06-12T16:00:06.970Z,33.83
2018-06-12T16:02:36.146Z,36.07
2018-06-12T16:05:05.228Z,36.67
2018-06-12T16:07:34.197Z,35.20
2018-06-12T16:10:03.316Z,34.57
2018-06-12T16:12:32.550Z,35.00
2018-06-12T16:15:01.701Z,34.91
2018-06-12T16:17:31.506Z,35.00
2018-06-12T16:20:00.459Z,33.66
2018-06-12T16:22:30.067Z,34.36
2018-06-12T16:24:58.992Z,34.76
2018-06-12T16:27:27.907Z,33.22
2018-06-12T16:29:57.159Z,35.91
2018-06-12T16:32:26.302Z,35.85
2018-06-12T16:34:55.320Z,35.93
2018-06-12T16:37:24.416Z,35.44
2018-06-12T16:39:53.365Z,35.83
2018-06-12T16:42:22.463Z,36.07
2018-06-12T16:44:53.478Z,35.59
2018-06-12T16:47:22.621Z,36.60
2018-06-12T16:49:52.168Z,37.11
2018-06-12T16:52:21.352Z,35.51
2018-06-12T16:54:50.279Z,35.95
2018-06-12T16:57:19.301Z,37.27
2018-06-12T16:59:48.310Z,39.39
2018-06-12T17:02:17.236Z,38.27
2018-06-12T17:04:46.584Z,39.40
2018-06-12T17:07:15.544Z,39.67
2018-06-12T17:09:44.615Z,40.39
2018-06-12T17:12:13.754Z,41.67
2018-06-12T17:14:42.969Z,41.62
2018-06-12T17:17:11.949Z,41.71
2018-06-12T17:19:40.926Z,41.65
2018-06-12T17:22:10.208Z,41.16
2018-06-12T17:24:39.608Z,42.03
2018-06-12T17:27:09.488Z,41.81
2018-06-12T17:29:39.182Z,42.67
2018-06-12T17:32:08.279Z,43.26
2018-06-12T17:34:37.440Z,41.82
2018-06-12T17:37:06.514Z,42.37
2018-06-12T17:39:35.480Z,43.77
2018-06-12T17:42:04.670Z,42.25
2018-06-12T17:44:35.108Z,42.40
2018-06-12T17:47:04.887Z,43.72
2018-06-12T17:49:33.916Z,43.02
2018-06-12T17:52:02.857Z,44.09
2018-06-12T17:54:32.805Z,44.56
2018-06-12T17:57:01.942Z,44.34
2018-06-12T17:59:31.026Z,44.03
2018-06-12T18:02:00.436Z,44.98
2018-06-12T18:04:29.452Z,45.15
2018-06-12T18:06:58.621Z,45.98
2018-06-12T18:09:27.797Z,46.37
2018-06-12T18:11:56.865Z,45.62
2018-06-12T18:14:25.870Z,46.96
2018-06-12T18:16:55.059Z,47.47
2018-06-12T18:19:24.001Z,46.87
2018-06-12T18:21:52.992Z,44.89
2018-06-12T18:24:22.592Z,45.66
2018-06-12T18:26:52.372Z,45.75
2018-06-12T18:29:21.426Z,46.85
2018-06-12T18:31:51.784Z,46.53
2018-06-12T18:34:20.687Z,45.74
2018-06-12T18:36:49.684Z,45.79
2018-06-12T18:39:18.665Z,45.83
2018-06-12T18:41:47.579Z,46.84
2018-06-12T18:44:16.518Z,45.51
2018-06-12T18:46:45.536Z,46.02
2018-06-12T18:49:14.428Z,45.16
2018-06-12T18:51:43.416Z,44.76
2018-06-12T18:54:12.450Z,46.64
2018-06-12T18:56:41.372Z,47.46
2018-06-12T18:59:10.377Z,47.37
2018-06-12T19:01:39.464Z,46.20
2018-06-12T19:04:09.028Z,46.13
2018-06-12T19:06:38.589Z,45.73
2018-06-12T19:09:08.046Z,43.48
2018-06-12T19:11:37.061Z,42.90
2018-06-12T19:14:06.050Z,44.46
2018-06-12T19:16:35.045Z,45.60
2018-06-12T19:19:04.427Z,44.16
2018-06-12T19:21:33.440Z,44.69
2018-06-12T19:24:02.857Z,44.13
2018-06-12T19:26:31.889Z,43.82
2018-06-12T19:29:00.792Z,44.45
2018-06-12T19:31:29.823Z,45.25
2018-06-12T19:33:58.772Z,45.22
2018-06-12T19:36:27.790Z,44.86
2018-06-12T19:38:56.903Z,45.87
2018-06-12T19:41:25.886Z,44.18
2018-06-12T19:43:54.799Z,44.10
2018-06-12T19:46:24.458Z,44.33
2018-06-12T19:48:53.661Z,44.92
2018-06-12T19:51:22.717Z,45.44
2018-06-12T19:53:51.727Z,45.63
2018-06-12T19:56:20.783Z,43.84
2018-06-12T19:58:49.774Z,45.90
2018-06-12T20:01:18.860Z,45.76
2018-06-12T20:03:48.309Z,47.56
2018-06-12T20:06:17.372Z,45.93
2018-06-12T20:08:46.431Z,45.98
2018-06-12T20:11:15.371Z,46.71
2018-06-12T20:13:44.712Z,45.28
2018-06-12T20:16:13.681Z,47.17
2018-06-12T20:18:42.655Z,47.08
2018-06-12T20:21:11.735Z,46.39
2018-06-12T20:23:40.721Z,46.27
2018-06-12T20:26:09.726Z,46.18
2018-06-12T20:28:38.809Z,45.86
2018-06-12T20:31:08.350Z,45.46
2018-06-12T20:33:37.368Z,45.40
2018-06-12T20:36:07.081Z,45.80
2018-06-12T20:38:36.224Z,45.61
2018-06-12T20:41:06.085Z,46.38
2018-06-12T20:43:35.084Z,46.97
2018-06-12T20:46:04.215Z,47.35
2018-06-12T20:48:33.253Z,47.46
2018-06-12T20:51:02.193Z,48.73
2018-06-12T20:53:32.659Z,49.30
2018-06-12T20:56:01.686Z,48.24
2018-06-12T20:58:30.669Z,48.74
2018-06-12T21:01:01.789Z,48.45
2018-06-12T21:03:30.741Z,47.99
2018-06-12T21:05:59.773Z,47.36
2018-06-12T21:08:29.004Z,47.85
2018-06-12T21:10:58.929Z,48.86
2018-06-12T21:13:28.062Z,48.71
2018-06-12T21:15:57.244Z,48.80
2018-06-12T21:18:26.289Z,48.38
2018-06-12T21:20:56.508Z,48.04
2018-06-12T21:23:27.619Z,48.48
2018-06-12T21:25:56.573Z,49.21
2018-06-12T21:28:25.569Z,49.88
2018-06-12T21:30:54.491Z,50.25
2018-06-12T21:33:24.543Z,50.07
2018-06-12T21:35:53.492Z,49.68
2018-06-12T21:38:22.374Z,50.40
2018-06-12T21:40:51.408Z,49.57
2018-06-12T21:43:20.399Z,50.32
2018-06-12T21:45:49.400Z,51.40
2018-06-12T21:48:18.588Z,48.10
2018-06-12T21:50:47.468Z,49.58
2018-06-12T21:53:17.475Z,50.36
2018-06-12T21:55:46.555Z,51.60
2018-06-12T21:58:15.485Z,50.04
2018-06-12T22:00:44.502Z,50.16
2018-06-12T22:03:13.647Z,49.15
2018-06-12T22:05:42.683Z,50.12
2018-06-12T22:08:15.092Z,48.94
2018-06-12T22:10:44.008Z,49.49
2018-06-12T22:13:12.968Z,50.25
2018-06-12T22:15:42.058Z,48.90
2018-06-12T22:18:11.171Z,48.63
2018-06-12T22:20:40.075Z,49.67
2018-06-12T22:23:09.643Z,50.32
2018-06-12T22:25:38.692Z,49.56
2018-06-12T22:28:07.679Z,49.34
2018-06-12T22:30:36.757Z,49.01
2018-06-12T22:33:05.802Z,50.03
2018-06-12T22:35:34.704Z,50.15
2018-06-12T22:38:03.712Z,49.37
2018-06-12T22:40:33.131Z,49.46
2018-06-12T22:43:02.035Z,50.13
2018-06-12T22:45:31.848Z,48.20
2018-06-12T22:48:00.759Z,47.78
2018-06-12T22:50:29.664Z,48.48
2018-06-12T22:52:58.655Z,48.07
2018-06-12T22:55:28.040Z,48.51
2018-06-12T22:57:56.978Z,47.83
2018-06-12T23:00:26.708Z,47.43
2018-06-12T23:02:55.663Z,46.37
2018-06-12T23:05:24.590Z,48.30
2018-06-12T23:07:53.685Z,48.01
2018-06-12T23:10:22.674Z,47.99
2018-06-12T23:12:51.604Z,49.43
2018-06-12T23:15:20.612Z,48.97
2018-06-12T23:17:49.547Z,49.67
2018-06-12T23:20:29.874Z,48.82
2018-06-12T23:22:58.946Z,48.06
2018-06-12T23:25:28.434Z,49.06
2018-06-12T23:27:57.676Z,48.80
2018-06-12T23:30:27.377Z,48.98
2018-06-12T23:32:56.319Z,49.00
2018-06-12T23:35:26.301Z,48.81
2018-06-12T23:37:55.293Z,49.10
2018-06-12T23:40:24.232Z,49.09
2018-06-12T23:42:53.307Z,48.74
2018-06-12T23:45:22.305Z,49.35
2018-06-12T23:47:51.262Z,50.66
2018-06-12T23:50:20.304Z,50.56
2018-06-12T23:52:49.816Z,50.56
2018-06-12T23:55:18.825Z,49.57
2018-06-12T23:57:47.794Z,50.07
